• Join FlightAware (Why Join?)
  • Login
  • US Flag 
09:13PM EDT


 

Airport Tracker/Info


-or-


 

Live Flight TrackerFlight Track Log ✈ AWE1253 ✈ 05-May-2013 ✈ KPHL - KTPA

Flight Track Log - Related Links

Times and Time Zones

All times are in EDT time to prevent confusion due to time zone crossing. See the AWE1253 flight status page for this flight to view local times or setup timezone preferences in your user account.

Time Position Orientation Groundspeed Altitude Reporting Facility
EDT Latitude Longitude Course Direction KTS MPH feet Rate Location/Type
08:53PM 39.8833 -75.2167 233° Southwest 161 185 1,000  Level Philadelphia TRACON
08:54PM 39.8833 -75.1833 90° East 189 217 1,900 2,520 Climbing Philadelphia TRACON
08:55PM 39.9333 -75.1500 27° Northeast 239 275 4,800 2,760 Climbing Philadelphia TRACON
08:56PM 39.8334 -75.6885 270° West  Level FlightAware Approximate
08:56PM 39.9500 -75.2167 288° West 266 306 7,200  Level Philadelphia TRACON
08:57PM 39.8050 -75.8306 232° Southwest  Level FlightAware Approximate
08:58PM 39.7317 -75.9522 226° Southwest  Level FlightAware Approximate
08:58PM 39.9131 -75.4286 257° West 312 359 10,100  Level New York Center
08:59PM 39.6554 -76.0698 233° Southwest  Level FlightAware Approximate
08:59PM 39.8878 -75.5406 254° West 324 373 10,100  Level New York Center
09:00PM 39.8669 -75.6419 255° West 329 379 10,200 1,500 Climbing New York Center
09:01PM 39.8125 -75.7517 237° Southwest 329 379 13,100 2,460 Climbing New York Center
09:02PM 39.7625 -75.8428 234° Southwest 342 394 15,200 2,340 Climbing New York Center
09:03PM 39.6992 -75.9594 235° Southwest 355 409 17,800 1,980 Climbing New York Center
09:04PM 39.6467 -76.0581 235° Southwest 365 420 19,200 1,620 Climbing New York Center
09:06PM 39.5219 -76.2883 235° Southwest 408 470 22,500 1,740 Climbing Washington Center
09:07PM 39.4483 -76.4086 232° Southwest 435 501 24,400 2,040 Climbing Washington Center
09:08PM 39.3639 -76.5392 230° Southwest 447 514 26,800 2,160 Climbing Washington Center
09:09PM 39.2900 -76.6561 231° Southwest 441 507 28,700 1,860 Climbing Washington Center
09:10PM 39.2181 -76.7703 231° Southwest 430 495 30,500 1,620 Climbing Washington Center
09:11PM 39.1483 -76.8817 231° Southwest 419 482 32,100 780 Climbing Washington Center
09:12PM 39.0742 -76.9925 229° Southwest 419 482 32,100 -60 Level Washington Center
09:13PM 38.9833 -77.0897 220° Southwest 419 482 32,000 -60 Descending Washington Center
09:14PM 38.8925 -77.1811 218° Southwest 419 482 32,000  Level Washington Center
09:15PM 38.7994 -77.2778 219° Southwest 424 488 32,000  Level Washington Center
09:16PM 38.7083 -77.3714 219° Southwest 429 494 32,000  Level Washington Center
09:17PM 38.6153 -77.4675 219° Southwest 429 494 32,100  Climbing Washington Center
09:18PM 38.5325 -77.5503 218° Southwest 429 494 32,000 -60 Descending Washington Center
09:19PM 38.4392 -77.6461 219° Southwest 429 494 32,000  Level Washington Center
09:20PM 38.3481 -77.7389 219° Southwest 429 494 32,000  Level Washington Center
09:21PM 38.2567 -77.8339 219° Southwest 429 494 32,000  Level Washington Center
09:22PM 38.1631 -77.9289 219° Southwest 429 494 32,000  Level Washington Center
09:23PM 38.0694 -78.0211 218° Southwest 429 494 32,000  Level Washington Center
09:24PM 37.9781 -78.1075 217° Southwest 421 484 32,000  Level Washington Center
09:25PM 37.8906 -78.1994 220° Southwest 421 484 32,000  Level Washington Center
09:26PM 37.8008 -78.2936 220° Southwest 421 484 32,000  Level Washington Center
09:27PM 37.6964 -78.3922 217° Southwest 427 491 32,000  Level Washington Center
09:28PM 37.6044 -78.4806 217° Southwest 427 491 32,000  Level Washington Center
09:29PM 37.5128 -78.5714 218° Southwest 427 491 32,000  Level Washington Center
09:30PM 37.4186 -78.6617 217° Southwest 427 491 32,000  Level Washington Center
09:31PM 37.3286 -78.7522 219° Southwest 427 491 32,000  Level Washington Center
09:32PM 37.2453 -78.8297 217° Southwest 427 491 32,000  Level Washington Center
09:33PM 37.1553 -78.9169 218° Southwest 427 491 32,000  Level Washington Center
09:34PM 37.0650 -79.0069 219° Southwest 427 491 32,000  Level Washington Center
09:35PM 36.9769 -79.0939 218° Southwest 427 491 32,000  Level Washington Center
09:36PM 36.8869 -79.1781 217° Southwest 427 491 32,000  Level Washington Center
09:37PM 36.7881 -79.2722 217° Southwest 427 491 32,000  Level Washington Center
09:38PM 36.7000 -79.3561 217° Southwest 417 480 32,000  Level Washington Center
09:39PM 36.6117 -79.4397 217° Southwest 417 480 32,000  Level Washington Center
09:40PM 36.4411 -79.6000 217° Southwest 393 452 32,000  Level Atlanta Center
09:41PM 36.3542 -79.6819 217° Southwest 393 452 32,000  Level Atlanta Center
09:42PM 36.2675 -79.7639 217° Southwest 398 458 32,000  Level Atlanta Center
09:43PM 36.1908 -79.8375 218° Southwest 398 458 32,100  Climbing Atlanta Center
09:44PM 36.1036 -79.9142 215° Southwest 398 458 32,000 -60 Descending Atlanta Center
09:45PM 36.0164 -79.9878 214° Southwest 398 458 32,000  Level Atlanta Center
09:46PM 35.9200 -80.0361 202° Southwest 384 442 32,000  Level Atlanta Center
09:47PM 35.8133 -80.0900 202° Southwest 379 436 32,000  Level Atlanta Center
09:48PM 35.7189 -80.1356 201° Southwest 374 430 32,000  Level Atlanta Center
09:49PM 35.6306 -80.1858 205° Southwest 374 430 32,000  Level Atlanta Center
09:50PM 35.5361 -80.2311 201° Southwest 374 430 32,000  Level Atlanta Center
09:51PM 35.4394 -80.2789 202° Southwest 369 425 32,000  Level Atlanta Center
09:52PM 35.3428 -80.3264 202° Southwest 369 425 32,000  Level Atlanta Center
09:53PM 35.2381 -80.3822 204° Southwest 375 432 32,000  Level Atlanta Center
09:54PM 35.1414 -80.4294 202° Southwest 370 426 32,000  Level Atlanta Center
09:57PM 34.9511 -80.5244 202° Southwest 371 427 32,000  Level Jacksonville Center
09:58PM 34.8603 -80.5675 201° Southwest 365 420 32,000  Level Jacksonville Center
09:59PM 34.7672 -80.6131 202° Southwest 365 420 32,000  Level Jacksonville Center
10:00PM 34.6742 -80.6608 203° Southwest 365 420 32,000  Level Jacksonville Center
10:01PM 34.5603 -80.7169 202° Southwest 390 449 32,000  Level Jacksonville Center
10:02PM 34.4675 -80.7669 204° Southwest 385 443 32,000  Level Jacksonville Center
10:03PM 34.3742 -80.8144 203° Southwest 377 434 32,100  Climbing Jacksonville Center
10:04PM 34.2956 -80.8442 197° South 370 426 32,000 -60 Descending Jacksonville Center
10:05PM 34.1983 -80.8942 203° Southwest 370 426 32,000  Level Jacksonville Center
10:06PM 34.0989 -80.9414 201° Southwest 370 426 32,000  Level Jacksonville Center
10:07PM 34.0056 -80.9861 202° Southwest 370 426 32,000  Level Jacksonville Center
10:08PM 33.8978 -81.0361 201° Southwest 375 432 32,000  Level Jacksonville Center
10:09PM 33.8150 -81.0753 201° Southwest 375 432 32,000  Level Jacksonville Center
10:10PM 33.7197 -81.1247 203° Southwest 375 432 32,000  Level Jacksonville Center
10:11PM 33.6264 -81.1714 203° Southwest 375 432 32,000  Level Jacksonville Center
10:12PM 33.5331 -81.2181 203° Southwest 375 432 32,000  Level Jacksonville Center
10:13PM 33.4397 -81.2622 202° Southwest 375 432 32,000  Level Jacksonville Center
10:14PM 33.3464 -81.3086 203° Southwest 375 432 32,000  Level Jacksonville Center
10:15PM 33.2553 -81.3525 202° Southwest 375 432 32,000  Level Jacksonville Center
10:16PM 33.1619 -81.3989 203° Southwest 370 426 32,000  Level Jacksonville Center
10:17PM 33.0683 -81.4450 202° Southwest 370 426 32,000  Level Jacksonville Center
10:18PM 32.9728 -81.4886 201° Southwest 375 432 32,000  Level Jacksonville Center
10:19PM 32.8794 -81.5347 203° Southwest 370 426 32,000  Level Jacksonville Center
10:20PM 32.7839 -81.5731 199° South 370 426 32,000  Level Jacksonville Center
10:21PM 32.6756 -81.6017 193° South 364 419 32,100  Climbing Jacksonville Center
10:22PM 32.5861 -81.6228 191° South 364 419 32,100  Level Jacksonville Center
10:23PM 32.4778 -81.6489 191° South 369 425 32,100  Level Jacksonville Center
10:24PM 32.3861 -81.6722 192° South 374 430 32,100 -60 Level Jacksonville Center
10:25PM 32.2778 -81.7008 193° South 374 430 32,000  Descending Jacksonville Center
10:26PM 32.1778 -81.7242 191° South 374 430 32,100  Climbing Jacksonville Center
10:27PM 32.0861 -81.7475 192° South 374 430 32,100 -60 Level Jacksonville Center
10:28PM 31.9778 -81.7758 193° South 374 430 32,000  Descending Jacksonville Center
10:29PM 31.8861 -81.7989 192° South 376 433 32,100  Climbing Jacksonville Center
10:30PM 31.7758 -81.8247 191° South 368 423 32,100  Level Jacksonville Center
10:31PM 31.6736 -81.8528 193° South 374 430 32,100  Level Jacksonville Center
10:32PM 31.5819 -81.8731 191° South 374 430 32,100  Level Jacksonville Center
10:33PM 31.4675 -81.9036 193° South 374 430 32,100  Level Jacksonville Center
10:34PM 31.3653 -81.9267 191° South 381 438 32,100 -60 Level Jacksonville Center
10:35PM 31.2589 -81.9569 194° South 386 444 32,000 -60 Descending Jacksonville Center
10:36PM 31.1569 -81.9797 191° South 386 444 32,000  Level Jacksonville Center
10:37PM 31.0506 -82.0075 193° South 391 450 32,000  Level Jacksonville Center
10:38PM 30.9442 -82.0303 190° South 391 450 32,000  Level Jacksonville Center
10:39PM 30.8400 -82.0578 193° South 391 450 32,000  Level Jacksonville Center
10:40PM 30.7442 -82.0803 191° South 391 450 32,000  Level Jacksonville Center
10:41PM 30.6378 -82.1078 193° South 391 450 32,000  Level Jacksonville Center
10:42PM 30.5231 -82.1306 190° South 391 450 32,000  Level Jacksonville Center
10:43PM 30.4169 -82.1578 192° South 391 450 32,000  Level Jacksonville Center
10:44PM 30.3106 -82.1828 191° South 391 450 32,000  Level Jacksonville Center
10:45PM 30.2061 -82.2075 192° South 397 457 32,000  Level Jacksonville Center
10:46PM 30.0978 -82.2347 192° South 397 457 32,000  Level Jacksonville Center
10:47PM 30.0019 -82.2617 194° South 392 451 32,000  Level Jacksonville Center
10:48PM 29.8956 -82.2889 193° South 392 451 32,000  Level Jacksonville Center
10:49PM 29.7872 -82.3133 191° South 397 457 32,000  Level Jacksonville Center
10:50PM 29.6683 -82.3381 190° South 397 457 32,000 -540 Level Jacksonville Center
10:51PM 29.5575 -82.3553 188° South 397 457 31,000 -1,380 Descending Jacksonville Center
10:52PM 29.4428 -82.3417 174° South 397 457 29,300 -2,520 Descending Jacksonville Center
10:53PM 29.3300 -82.3281 174° South 412 474 26,000 -3,120 Descending Jacksonville Center
10:54PM 29.2131 -82.3167 175° South 418 481 23,100 -3,120 Descending Jacksonville Center
10:55PM 29.1044 -82.3008 173° South 418 481 19,800 -2,880 Descending Jacksonville Center
10:56PM 28.9936 -82.2897 175° South 408 470 17,400 -2,520 Descending Jacksonville Center
10:57PM 28.8892 -82.2736 172° South 397 457 14,800 -1,740 Descending Jacksonville Center
10:58PM 28.7333 -82.2667 178° South 365 420 13,000 -840 Descending Tampa TRACON
10:59PM 28.6500 -82.2500 170° South 350 403 12,900 -900 Descending Tampa TRACON
11:00PM 28.5500 -82.2500 180° South 317 365 11,300 -1,440 Descending Tampa TRACON
11:01PM 28.4667 -82.2500 180° South 296 341 10,100 -1,260 Descending Tampa TRACON
11:02PM 28.4000 -82.2500 180° South 268 308 8,800 -1,620 Descending Tampa TRACON
11:03PM 28.3333 -82.2667 192° South 258 297 7,100 -1,560 Descending Tampa TRACON
11:04PM 28.3000 -82.3333 240° Southwest 249 287 5,700 -1,200 Descending Tampa TRACON
11:05PM 28.2500 -82.4000 230° Southwest 223 257 4,700 -1,020 Descending Tampa TRACON
11:06PM 28.2167 -82.4500 233° Southwest 222 255 3,600 -900 Descending Tampa TRACON
11:07PM 28.1833 -82.5000 233° Southwest 193 222 3,000 -660 Descending Tampa TRACON
11:08PM 28.1333 -82.5167 196° South 189 217 2,500 -540 Descending Tampa TRACON
11:09PM 28.1000 -82.5333 204° Southwest 177 204 2,000 -720 Descending Tampa TRACON
11:10PM 28.0500 -82.5333 180° South 146 168 1,100 -780 Descending Tampa TRACON
11:11PM 28.0000 -82.5333 180° South 141 162 400 -720 Descending Tampa TRACON